Time;durP1;ratioP1;P1;durP2;ratioP2;P2;SDS_P1;SDS_P2;PMS_P1;PMS_P2;Temp;Humidity;BMP_temperature;BMP_pressure;BME280_temperature;BME280_humidity;BME280_pressure;Samples;Min_cycle;Max_cycle;Signal;HPM_P1;HPM_P2
2022/12/30 00:00:03;;;;;;;;;;;;;;;19.23;64.65;99177.28;2076623;28;19929;-72
2022/12/30 00:01:05;;;;;;;;;;;;;;;19.20;64.51;99181.19;2075462;28;20062;-72
2022/12/30 00:02:07;;;;;;;;;;;;;;;19.20;64.62;99181.19;2075158;28;20303;-72
2022/12/30 00:03:09;;;;;;;;;;;;;;;19.19;64.44;99171.44;2074825;28;19978;-72
2022/12/30 00:04:10;;;;;;;;;;;;;;;19.19;64.70;99176.81;2073298;28;19955;-72
2022/12/30 00:05:10;;;;;;;;;;;;;;;19.18;64.18;99165.22;2072515;28;20375;-72
2022/12/30 00:06:15;;;;;;;;;;;;;;;19.18;64.44;99164.41;2075781;28;19932;-72
2022/12/30 00:07:16;;;;;;;;;;;;;;;19.17;64.43;99166.25;2072836;28;19929;-71
2022/12/30 00:09:37;;;;;;;;;;;;;;;19.18;64.70;99167.09;2074309;28;19933;-72
2022/12/30 00:10:40;;;;;;;;;;;;;;;19.16;64.74;99169.13;2077349;28;20346;-72
2022/12/30 00:11:42;;;;;;;;;;;;;;;19.16;64.61;99166.44;2069068;28;19987;-72
2022/12/30 00:33:59;;;;;;;;;;;;;;;18.98;64.47;99175.81;2070781;28;19928;-74
2022/12/30 00:35:02;;;;;;;;;;;;;;;18.96;64.77;99174.34;2075587;28;19928;-74
2022/12/30 00:36:03;;;;;;;;;;;;;;;18.95;64.87;99181.56;2076252;28;19920;-74
2022/12/30 00:37:04;;;;;;;;;;;;;;;18.96;64.68;99179.72;2071593;28;20184;-73
2022/12/30 00:38:06;;;;;;;;;;;;;;;18.96;64.78;99183.22;2070512;28;19951;-73
2022/12/30 00:39:06;;;;;;;;;;;;;;;18.98;64.82;99181.19;2077551;28;20503;-73
2022/12/30 00:40:08;;;;;;;;;;;;;;;18.97;64.81;99189.44;2071102;28;19932;-74
2022/12/30 00:43:47;;;;;;;;;;;;;;;18.94;64.90;99185.28;2075510;28;19924;-73
2022/12/30 00:44:48;;;;;;;;;;;;;;;18.94;64.78;99190.69;2070934;28;20019;-73
2022/12/30 00:45:49;;;;;;;;;;;;;;;18.91;64.72;99185.66;2073400;28;19927;-73
2022/12/30 00:46:51;;;;;;;;;;;;;;;18.91;64.74;99182.97;2072486;28;20003;-74
2022/12/30 00:47:52;;;;;;;;;;;;;;;18.88;64.54;99177.97;2073270;28;20195;-73
2022/12/30 00:56:48;;;;;;;;;;;;;;;18.87;64.69;99189.75;2071890;28;19928;-73
2022/12/30 00:57:48;;;;;;;;;;;;;;;18.86;64.64;99190.81;2076762;28;19924;-72
2022/12/30 00:58:50;;;;;;;;;;;;;;;18.86;64.79;99187.25;2072296;28;19928;-73
2022/12/30 00:59:50;;;;;;;;;;;;;;;18.85;64.56;99190.97;2074446;28;19925;-73
2022/12/30 01:00:52;;;;;;;;;;;;;;;18.84;64.63;99195.53;2072250;28;21477;-73
2022/12/30 01:01:52;;;;;;;;;;;;;;;18.83;64.71;99190.31;2072853;28;19924;-73
2022/12/30 01:02:54;;;;;;;;;;;;;;;18.83;64.95;99199.22;2072547;28;19936;-73
2022/12/30 01:03:55;;;;;;;;;;;;;;;18.83;64.86;99191.16;2073460;28;19921;-73
2022/12/30 01:04:56;;;;;;;;;;;;;;;18.81;65.03;99189.72;2074059;28;20012;-73
2022/12/30 01:06:03;;;;;;;;;;;;;;;18.79;65.11;99187.19;2071169;28;19925;-74
2022/12/30 01:07:05;;;;;;;;;;;;;;;18.78;65.07;99187.38;2072670;28;19979;-73
2022/12/30 01:08:05;;;;;;;;;;;;;;;18.77;65.18;99191.09;2073303;28;19931;-73
2022/12/30 01:09:07;;;;;;;;;;;;;;;18.76;64.82;99184.91;2075932;28;19935;-73
2022/12/30 01:10:08;;;;;;;;;;;;;;;18.77;64.89;99186.56;2075877;28;19925;-73
2022/12/30 01:11:10;;;;;;;;;;;;;;;18.75;64.82;99194.81;2074754;28;19976;-73
2022/12/30 01:12:11;;;;;;;;;;;;;;;18.75;64.86;99202.06;2075393;28;20394;-74
2022/12/30 01:13:12;;;;;;;;;;;;;;;18.74;65.03;99192.31;2073067;28;19921;-74
2022/12/30 01:14:13;;;;;;;;;;;;;;;18.74;65.18;99195.00;2073303;28;19935;-73
2022/12/30 01:15:14;;;;;;;;;;;;;;;18.74;64.89;99193.13;2078538;28;19944;-73
2022/12/30 01:16:16;;;;;;;;;;;;;;;18.74;64.78;99195.81;2077630;28;19966;-73
2022/12/30 01:17:19;;;;;;;;;;;;;;;18.76;65.11;99198.34;2075111;28;20571;-73
2022/12/30 01:18:19;;;;;;;;;;;;;;;18.75;64.82;99194.00;2073700;28;20520;-73
2022/12/30 01:19:21;;;;;;;;;;;;;;;18.75;65.01;99191.31;2079172;28;19921;-73
2022/12/30 01:20:21;;;;;;;;;;;;;;;18.72;65.03;99187.13;2069801;28;19928;-74
2022/12/30 01:21:24;;;;;;;;;;;;;;;18.71;64.76;99193.50;2074120;28;20283;-73
2022/12/30 01:22:25;;;;;;;;;;;;;;;18.71;64.87;99188.13;2076722;28;20005;-73
2022/12/30 01:23:26;;;;;;;;;;;;;;;18.70;65.00;99193.69;2076959;28;19970;-73
2022/12/30 01:24:27;;;;;;;;;;;;;;;18.68;65.00;99185.81;2075947;28;20352;-74
2022/12/30 01:25:28;;;;;;;;;;;;;;;18.68;65.29;99195.72;2069557;28;19932;-73
2022/12/30 01:26:29;;;;;;;;;;;;;;;18.68;65.42;99198.41;2073418;28;19924;-74
2022/12/30 01:27:32;;;;;;;;;;;;;;;18.67;65.02;99196.78;2074847;28;19928;-73
2022/12/30 01:28:33;;;;;;;;;;;;;;;18.67;64.98;99194.91;2070950;28;19921;-73
2022/12/30 01:29:36;;;;;;;;;;;;;;;18.66;65.22;99197.78;2073999;28;20642;-73
2022/12/30 01:30:36;;;;;;;;;;;;;;;18.66;65.31;99203.97;2073099;28;20442;-73
2022/12/30 01:31:38;;;;;;;;;;;;;;;18.64;65.08;99199.84;2072788;28;19982;-74
2022/12/30 01:32:38;;;;;;;;;;;;;;;18.65;65.10;99196.13;2074251;28;20436;-73
2022/12/30 01:33:40;;;;;;;;;;;;;;;18.62;65.13;99196.50;2073639;28;19927;-73
2022/12/30 01:34:41;;;;;;;;;;;;;;;18.64;65.04;99200.66;2075439;28;20005;-73
2022/12/30 01:35:42;;;;;;;;;;;;;;;18.66;65.20;99201.28;2078775;28;19932;-74
2022/12/30 01:36:44;;;;;;;;;;;;;;;18.66;64.86;99195.09;2075133;28;19928;-74
2022/12/30 01:37:46;;;;;;;;;;;;;;;18.63;64.96;99192.78;2075835;28;19925;-74
2022/12/30 01:38:46;;;;;;;;;;;;;;;18.62;64.94;99191.94;2071691;28;19920;-73
2022/12/30 01:39:48;;;;;;;;;;;;;;;18.62;65.00;99188.44;2072048;28;19931;-73
2022/12/30 01:40:48;;;;;;;;;;;;;;;18.61;65.09;99182.25;2070242;28;20001;-73
2022/12/30 01:41:50;;;;;;;;;;;;;;;18.60;65.42;99182.41;2072462;28;20485;-74
2022/12/30 01:42:50;;;;;;;;;;;;;;;18.59;65.22;99175.38;2070684;28;20567;-73
2022/12/30 01:43:52;;;;;;;;;;;;;;;18.60;65.11;99182.41;2071394;28;19935;-73
2022/12/30 01:44:57;;;;;;;;;;;;;;;18.57;65.28;99172.06;2069492;28;20774;-73
2022/12/30 01:45:59;;;;;;;;;;;;;;;18.56;65.29;99171.22;2071660;28;20012;-73
2022/12/30 01:47:00;;;;;;;;;;;;;;;18.56;65.11;99170.41;2073107;28;19936;-73
2022/12/30 01:48:03;;;;;;;;;;;;;;;18.54;65.29;99168.72;2075157;28;19935;-73
2022/12/30 01:49:04;;;;;;;;;;;;;;;18.54;65.39;99163.34;2072251;28;20301;-74
2022/12/30 01:50:13;;;;;;;;;;;;;;;18.53;65.09;99161.69;2070263;28;19929;-73
2022/12/30 01:51:15;;;;;;;;;;;;;;;18.53;65.28;99155.50;2073648;28;20424;-74
2022/12/30 01:52:20;;;;;;;;;;;;;;;18.53;65.37;99152.81;2072896;28;20347;-74
2022/12/30 01:53:23;;;;;;;;;;;;;;;18.51;65.13;99147.63;2071508;28;20948;-74
2022/12/30 01:54:24;;;;;;;;;;;;;;;18.51;65.28;99147.63;2070358;28;19933;-73
2022/12/30 01:55:27;;;;;;;;;;;;;;;18.50;65.12;99143.28;2069924;28;20035;-73
2022/12/30 01:56:30;;;;;;;;;;;;;;;18.49;65.23;99133.53;2069608;28;19931;-73
2022/12/30 01:57:31;;;;;;;;;;;;;;;18.48;65.43;99125.69;2074285;28;19924;-73
2022/12/30 01:58:33;;;;;;;;;;;;;;;18.48;65.41;99123.00;2067367;28;20035;-73
2022/12/30 01:59:36;;;;;;;;;;;;;;;18.48;65.56;99123.00;2071246;28;19936;-73
2022/12/30 02:00:37;;;;;;;;;;;;;;;18.47;65.23;99116.78;2069939;28;19929;-74
2022/12/30 02:01:39;;;;;;;;;;;;;;;18.48;65.42;99112.25;2075611;28;19983;-73
2022/12/30 02:02:40;;;;;;;;;;;;;;;18.46;65.51;99112.44;2068307;28;19924;-74
2022/12/30 02:03:44;;;;;;;;;;;;;;;18.47;65.30;99107.88;2071985;28;19977;-73
2022/12/30 02:04:45;;;;;;;;;;;;;;;18.47;65.11;99108.75;2067199;28;19968;-74
2022/12/30 02:05:47;;;;;;;;;;;;;;;18.44;65.29;99106.44;2074709;28;20726;-74
2022/12/30 02:06:51;;;;;;;;;;;;;;;18.43;65.46;99102.06;2069516;28;19940;-73
2022/12/30 02:07:57;;;;;;;;;;;;;;;18.43;65.49;99107.44;2070571;28;19924;-73
2022/12/30 02:08:58;;;;;;;;;;;;;;;18.42;65.19;99100.41;2074198;28;20286;-73
2022/12/30 02:10:00;;;;;;;;;;;;;;;18.43;65.36;99098.56;2072363;28;19927;-73
2022/12/30 02:11:02;;;;;;;;;;;;;;;18.42;65.22;99100.41;2070019;28;19981;-73
2022/12/30 02:12:05;;;;;;;;;;;;;;;18.43;65.20;99106.63;2071193;28;20040;-73
2022/12/30 02:13:09;;;;;;;;;;;;;;;18.42;65.23;99105.78;2069934;28;19928;-74
2022/12/30 02:14:11;;;;;;;;;;;;;;;18.42;65.44;99113.03;2070743;28;19924;-74
2022/12/30 02:15:13;;;;;;;;;;;;;;;18.39;65.47;99106.16;2072058;28;19920;-73
2022/12/30 02:16:24;;;;;;;;;;;;;;;18.39;65.30;99100.81;2071138;28;21036;-73
2022/12/30 02:17:32;;;;;;;;;;;;;;;18.38;65.54;99099.13;2068130;28;23049;-73
2022/12/30 02:18:40;;;;;;;;;;;;;;;18.39;65.32;99108.03;2074933;28;19925;-73
2022/12/30 02:20:04;;;;;;;;;;;;;;;18.37;65.53;99108.22;2069962;28;20367;-73
2022/12/30 02:21:26;;;;;;;;;;;;;;;18.37;65.21;99102.00;2070254;28;20028;-73
2022/12/30 02:22:31;;;;;;;;;;;;;;;18.38;65.35;99111.72;2073850;28;19924;-73
2022/12/30 02:23:49;;;;;;;;;;;;;;;18.36;65.24;99111.94;2069711;28;20035;-74
2022/12/30 02:25:07;;;;;;;;;;;;;;;18.37;65.33;99113.59;2070360;28;20054;-73
2022/12/30 02:26:24;;;;;;;;;;;;;;;18.34;65.66;99113.97;2073937;28;19936;-73
2022/12/30 02:27:42;;;;;;;;;;;;;;;18.35;65.57;99110.25;2072647;28;19974;-73
2022/12/30 02:29:02;;;;;;;;;;;;;;;18.34;65.39;99108.59;2068904;28;19924;-73
2022/12/30 02:30:06;;;;;;;;;;;;;;;18.31;65.58;99096.38;2069892;28;19932;-74
2022/12/30 02:31:17;;;;;;;;;;;;;;;18.30;65.42;99089.34;2072694;28;19929;-73
2022/12/30 02:32:22;;;;;;;;;;;;;;;18.30;65.42;99086.66;2066850;28;19931;-73
2022/12/30 02:33:25;;;;;;;;;;;;;;;18.30;65.51;99085.81;2066673;28;19928;-73
2022/12/30 02:34:31;;;;;;;;;;;;;;;18.31;65.49;99085.63;2078655;28;19928;-73
2022/12/30 02:35:36;;;;;;;;;;;;;;;18.32;65.30;99091.84;2072547;28;20270;-73
2022/12/30 02:36:42;;;;;;;;;;;;;;;18.32;65.30;99086.47;2066533;28;20336;-73
2022/12/30 02:37:48;;;;;;;;;;;;;;;18.33;65.33;99089.97;2073298;28;19982;-73
2022/12/30 02:38:53;;;;;;;;;;;;;;;18.31;65.32;99092.88;2069731;28;20457;-73
2022/12/30 02:39:58;;;;;;;;;;;;;;;18.30;65.27;99085.81;2071150;28;19928;-73
2022/12/30 02:45:09;;;;;;;;;;;;;;;18.27;65.46;99091.56;2073080;28;19937;-73
2022/12/30 02:46:11;;;;;;;;;;;;;;;18.27;65.39;99088.88;2069377;28;19928;-73
2022/12/30 02:47:18;;;;;;;;;;;;;;;18.26;65.51;99096.09;2069269;28;19929;-73
2022/12/30 02:48:21;;;;;;;;;;;;;;;18.25;65.33;99096.31;2079466;28;20103;-73
2022/12/30 02:49:24;;;;;;;;;;;;;;;18.25;65.51;99099.00;2071265;28;19928;-73
2022/12/30 02:53:07;;;;;;;;;;;;;;;18.24;65.67;99103.50;2068470;28;20035;-73
2022/12/30 02:54:08;;;;;;;;;;;;;;;18.22;65.46;99102.03;2071788;28;19921;-73
2022/12/30 02:55:09;;;;;;;;;;;;;;;18.22;65.67;99094.84;2065822;28;19924;-74
2022/12/30 02:56:10;;;;;;;;;;;;;;;18.23;65.38;99101.03;2068391;28;20378;-73
2022/12/30 02:57:24;;;;;;;;;;;;;;;18.22;65.34;99097.53;2070696;28;19924;-73
2022/12/30 02:58:27;;;;;;;;;;;;;;;18.23;65.42;99093.81;2074987;28;19929;-74
2022/12/30 03:04:00;;;;;;;;;;;;;;;18.21;65.58;99086.97;2069886;28;19928;-73
2022/12/30 03:05:07;;;;;;;;;;;;;;;18.19;65.58;99083.63;2065983;28;20016;-74
2022/12/30 03:06:16;;;;;;;;;;;;;;;18.17;65.63;99081.16;2069570;28;19924;-74
2022/12/30 03:07:23;;;;;;;;;;;;;;;18.19;65.54;99075.56;2071662;28;19929;-73
2022/12/30 03:08:27;;;;;;;;;;;;;;;18.18;65.67;99079.28;2069545;28;20301;-73
2022/12/30 03:09:38;;;;;;;;;;;;;;;18.17;65.69;99077.63;2070178;28;19931;-73
2022/12/30 03:12:04;;;;;;;;;;;;;;;18.15;65.71;99077.81;2073240;28;19922;-73
2022/12/30 03:13:07;;;;;;;;;;;;;;;18.17;65.49;99081.16;2070498;28;20043;-73
2022/12/30 03:14:16;;;;;;;;;;;;;;;18.17;65.47;99085.69;2072921;28;20239;-73
2022/12/30 03:15:21;;;;;;;;;;;;;;;18.15;65.45;99085.03;2071825;28;19928;-73
2022/12/30 03:16:26;;;;;;;;;;;;;;;18.12;65.62;99082.75;2075390;28;19955;-73
2022/12/30 03:17:28;;;;;;;;;;;;;;;18.13;65.54;99084.38;2073929;28;19933;-73
2022/12/30 03:18:31;;;;;;;;;;;;;;;18.13;65.54;99081.72;2069313;28;19924;-73
2022/12/30 03:19:35;;;;;;;;;;;;;;;18.14;65.65;99089.59;2063164;28;19929;-73
2022/12/30 03:20:38;;;;;;;;;;;;;;;18.13;65.75;99087.06;2069756;28;19929;-74
2022/12/30 03:21:41;;;;;;;;;;;;;;;18.14;65.45;99083.38;2074021;28;19972;-73
2022/12/30 03:28:05;;;;;;;;;;;;;;;18.08;65.59;99077.75;2070354;28;19924;-73
2022/12/30 03:29:07;;;;;;;;;;;;;;;18.10;65.45;99080.22;2074452;28;19928;-74
2022/12/30 03:30:09;;;;;;;;;;;;;;;18.09;65.59;99075.91;2069648;28;19987;-73
2022/12/30 03:31:11;;;;;;;;;;;;;;;18.09;65.69;99075.91;2066929;28;20025;-73
2022/12/30 03:32:14;;;;;;;;;;;;;;;18.08;65.59;99079.63;2073147;28;19925;-74
2022/12/30 03:33:15;;;;;;;;;;;;;;;18.08;65.49;99083.13;2069979;28;19929;-74
2022/12/30 03:34:17;;;;;;;;;;;;;;;18.09;65.79;99083.94;2069149;28;19959;-73
2022/12/30 03:35:21;;;;;;;;;;;;;;;18.07;65.62;99080.63;2068629;28;20313;-73
2022/12/30 03:36:26;;;;;;;;;;;;;;;18.06;65.73;99087.00;2072154;28;19927;-73
2022/12/30 03:37:28;;;;;;;;;;;;;;;18.07;65.66;99081.44;2074482;28;19932;-73
2022/12/30 03:38:32;;;;;;;;;;;;;;;18.06;65.52;99079.78;2067940;28;19929;-73
2022/12/30 03:39:35;;;;;;;;;;;;;;;18.07;65.66;99086.81;2068245;28;19928;-73
2022/12/30 03:40:38;;;;;;;;;;;;;;;18.06;65.65;99077.09;2070523;28;19921;-73
2022/12/30 03:41:39;;;;;;;;;;;;;;;18.06;65.62;99081.66;2067747;28;20009;-73
2022/12/30 03:42:40;;;;;;;;;;;;;;;18.05;65.70;99071.91;2073828;28;19996;-73
2022/12/30 03:43:42;;;;;;;;;;;;;;;18.05;65.47;99079.97;2074675;28;19920;-73
2022/12/30 03:44:44;;;;;;;;;;;;;;;18.06;65.79;99070.91;2066896;28;19929;-73
2022/12/30 03:45:45;;;;;;;;;;;;;;;18.06;65.50;99074.41;2073053;28;19933;-74
2022/12/30 03:46:47;;;;;;;;;;;;;;;18.06;65.47;99074.41;2073442;28;19940;-73
2022/12/30 03:47:47;;;;;;;;;;;;;;;18.07;65.58;99069.88;2075497;28;19924;-73
2022/12/30 03:48:49;;;;;;;;;;;;;;;18.06;65.62;99069.06;2069121;28;20949;-73
2022/12/30 03:49:49;;;;;;;;;;;;;;;18.05;65.38;99066.53;2071981;28;20536;-73
2022/12/30 03:50:52;;;;;;;;;;;;;;;18.03;65.62;99068.59;2069395;28;19928;-73
2022/12/30 03:51:53;;;;;;;;;;;;;;;18.03;65.45;99064.06;2069716;28;19931;-73
2022/12/30 03:52:54;;;;;;;;;;;;;;;18.04;65.68;99064.88;2070661;28;20459;-73
2022/12/30 03:53:55;;;;;;;;;;;;;;;18.00;65.69;99064.44;2069907;28;19924;-73
2022/12/30 03:54:56;;;;;;;;;;;;;;;18.00;65.52;99058.25;2071393;28;19920;-73
2022/12/30 03:55:57;;;;;;;;;;;;;;;18.00;65.51;99058.25;2072630;28;19929;-73
2022/12/30 03:56:58;;;;;;;;;;;;;;;18.00;65.63;99059.06;2071742;28;19927;-73
2022/12/30 03:57:59;;;;;;;;;;;;;;;18.00;65.53;99055.56;2078941;28;19925;-73
2022/12/30 03:59:00;;;;;;;;;;;;;;;18.00;65.54;99056.38;2080362;28;19928;-73
2022/12/30 04:00:01;;;;;;;;;;;;;;;18.01;65.62;99058.03;2074049;28;19924;-73
2022/12/30 04:01:02;;;;;;;;;;;;;;;17.99;65.67;99057.41;2074667;28;19977;-73
2022/12/30 04:02:03;;;;;;;;;;;;;;;18.00;65.60;99053.72;2077117;28;20386;-73
2022/12/30 04:03:04;;;;;;;;;;;;;;;18.01;65.39;99055.34;2076715;28;19929;-73
2022/12/30 04:04:05;;;;;;;;;;;;;;;18.00;65.39;99048.34;2076777;28;19929;-73
2022/12/30 04:05:07;;;;;;;;;;;;;;;17.99;65.50;99068.13;2074125;28;23070;-73
2022/12/30 04:06:09;;;;;;;;;;;;;;;17.96;65.79;99063.16;2072961;28;20382;-73
2022/12/30 04:07:11;;;;;;;;;;;;;;;17.96;65.77;99062.31;2063401;28;19950;-74
2022/12/30 04:08:11;;;;;;;;;;;;;;;17.93;65.95;99060.84;2071127;28;19925;-74
2022/12/30 04:09:13;;;;;;;;;;;;;;;17.95;65.81;99061.50;2070954;28;19929;-73
2022/12/30 04:10:14;;;;;;;;;;;;;;;17.96;65.49;99065.81;2076481;28;19928;-73
2022/12/30 04:11:15;;;;;;;;;;;;;;;17.96;65.81;99065.00;2072850;28;20473;-73
2022/12/30 04:12:16;;;;;;;;;;;;;;;17.96;65.51;99065.81;2076269;28;19921;-73
2022/12/30 04:13:17;;;;;;;;;;;;;;;17.95;65.77;99061.50;2068108;28;19921;-73
2022/12/30 04:14:18;;;;;;;;;;;;;;;17.97;65.73;99063.97;2073737;28;19974;-73
2022/12/30 04:15:19;;;;;;;;;;;;;;;17.96;65.67;99065.81;2069475;28;20424;-73
2022/12/30 04:16:20;;;;;;;;;;;;;;;17.94;65.58;99065.22;2076022;28;19954;-73
2022/12/30 04:17:21;;;;;;;;;;;;;;;17.95;65.54;99058.81;2069086;28;20007;-73
2022/12/30 04:18:22;;;;;;;;;;;;;;;17.94;65.77;99059.84;2074482;28;19994;-73
2022/12/30 04:19:23;;;;;;;;;;;;;;;17.94;65.43;99050.94;2074774;28;19994;-73
2022/12/30 04:20:24;;;;;;;;;;;;;;;17.94;65.54;99049.09;2072356;28;19932;-73
2022/12/30 04:21:27;;;;;;;;;;;;;;;17.93;65.84;99044.75;2075678;28;19925;-73
2022/12/30 04:22:28;;;;;;;;;;;;;;;17.93;65.70;99041.22;2074530;28;20022;-73
2022/12/30 04:23:29;;;;;;;;;;;;;;;17.93;65.81;99035.88;2071215;28;19924;-73
2022/12/30 04:24:30;;;;;;;;;;;;;;;17.93;65.53;99035.88;2076737;28;20397;-73
2022/12/30 04:25:31;;;;;;;;;;;;;;;17.94;65.49;99034.81;2077554;28;19925;-73
2022/12/30 04:26:32;;;;;;;;;;;;;;;17.93;65.48;99031.31;2070208;28;20483;-73
2022/12/30 04:27:33;;;;;;;;;;;;;;;17.94;65.60;99041.06;2070738;28;19929;-73
2022/12/30 04:28:34;;;;;;;;;;;;;;;17.92;65.73;99031.53;2069822;28;19940;-73
2022/12/30 04:29:35;;;;;;;;;;;;;;;17.91;65.57;99025.31;2076200;28;20308;-73
2022/12/30 04:30:36;;;;;;;;;;;;;;;17.90;65.68;99023.66;2073789;28;19931;-73
2022/12/30 04:31:37;;;;;;;;;;;;;;;17.90;65.69;99025.50;2073656;28;19925;-73
2022/12/30 04:32:38;;;;;;;;;;;;;;;17.90;65.81;99020.97;2072958;28;19986;-73
2022/12/30 04:33:39;;;;;;;;;;;;;;;17.91;65.59;99022.63;2073157;28;20311;-74
2022/12/30 04:34:40;;;;;;;;;;;;;;;17.87;65.75;99026.72;2071593;28;19924;-73
2022/12/30 04:35:41;;;;;;;;;;;;;;;17.88;65.58;99020.31;2071764;28;19935;-73
2022/12/30 04:36:44;;;;;;;;;;;;;;;17.92;65.47;99028.84;2070385;28;19928;-73
2022/12/30 04:37:47;;;;;;;;;;;;;;;17.99;65.44;99019.81;2068773;28;19969;-73
2022/12/30 04:38:49;;;;;;;;;;;;;;;18.04;65.22;99017.41;2073077;28;20391;-73
2022/12/30 04:39:49;;;;;;;;;;;;;;;18.09;64.99;99017.66;2076998;28;19924;-73
2022/12/30 04:40:51;;;;;;;;;;;;;;;18.14;65.03;99017.09;2075997;28;19921;-73
2022/12/30 04:41:51;;;;;;;;;;;;;;;18.20;64.78;99018.19;2077318;28;19928;-74
2022/12/30 04:42:52;;;;;;;;;;;;;;;18.25;64.80;99018.44;2078574;28;20294;-73
2022/12/30 04:43:54;;;;;;;;;;;;;;;18.31;64.52;99023.06;2075464;28;20769;-73
2022/12/30 04:44:54;;;;;;;;;;;;;;;18.35;64.48;99024.31;2073861;28;19950;-73
2022/12/30 04:45:56;;;;;;;;;;;;;;;18.41;64.32;99028.09;2078654;28;19990;-73
2022/12/30 04:46:56;;;;;;;;;;;;;;;18.43;64.33;99024.19;2074288;28;19959;-73
2022/12/30 04:47:58;;;;;;;;;;;;;;;18.47;64.29;99022.78;2072701;28;19928;-73
2022/12/30 04:48:58;;;;;;;;;;;;;;;18.48;64.53;99026.31;2076047;28;19925;-73
2022/12/30 04:50:00;;;;;;;;;;;;;;;18.50;64.51;99033.16;2078725;28;20435;-73
2022/12/30 04:51:00;;;;;;;;;;;;;;;18.56;64.29;99036.91;2076655;28;19930;-73
2022/12/30 04:52:03;;;;;;;;;;;;;;;18.57;64.53;99035.06;2078763;28;22114;-73
2022/12/30 04:53:04;;;;;;;;;;;;;;;18.59;64.49;99041.06;2076322;28;19924;-73
2022/12/30 04:54:05;;;;;;;;;;;;;;;18.61;64.21;99047.91;2077599;28;19982;-73
2022/12/30 04:55:06;;;;;;;;;;;;;;;18.65;64.33;99045.66;2073736;28;19928;-73
2022/12/30 04:56:08;;;;;;;;;;;;;;;18.66;64.51;99044.63;2076173;28;20043;-73
2022/12/30 04:57:08;;;;;;;;;;;;;;;18.69;64.20;99049.59;2075335;28;19925;-73
2022/12/30 04:58:10;;;;;;;;;;;;;;;18.70;64.16;99048.59;2074627;28;20018;-73
2022/12/30 04:59:10;;;;;;;;;;;;;;;18.72;64.21;99057.28;2072952;28;19948;-73
2022/12/30 05:00:12;;;;;;;;;;;;;;;18.73;64.05;99051.72;2073413;28;21730;-73
2022/12/30 05:01:13;;;;;;;;;;;;;;;18.75;64.22;99067.69;2072206;28;19928;-73
2022/12/30 05:02:14;;;;;;;;;;;;;;;18.80;64.11;99059.03;2065594;28;19925;-74
2022/12/30 05:03:15;;;;;;;;;;;;;;;18.81;64.10;99071.47;2070426;28;19973;-74
2022/12/30 05:04:16;;;;;;;;;;;;;;;18.82;64.12;99067.75;2076111;28;19936;-73
2022/12/30 05:05:17;;;;;;;;;;;;;;;18.82;64.23;99063.19;2072179;28;20374;-73
2022/12/30 05:06:19;;;;;;;;;;;;;;;18.88;64.04;99066.97;2075778;28;20451;-73
2022/12/30 05:07:20;;;;;;;;;;;;;;;18.87;63.96;99066.13;2077824;28;19925;-74
2022/12/30 05:08:22;;;;;;;;;;;;;;;18.88;64.26;99062.41;2071867;28;19924;-73
2022/12/30 05:09:23;;;;;;;;;;;;;;;18.91;63.92;99066.56;2075141;28;20059;-74
2022/12/30 05:10:24;;;;;;;;;;;;;;;18.92;64.26;99074.44;2069907;28;19936;-74
2022/12/30 05:11:25;;;;;;;;;;;;;;;18.92;64.30;99063.69;2073649;28;20027;-74
2022/12/30 05:12:26;;;;;;;;;;;;;;;18.94;63.95;99066.16;2072442;28;19921;-73
2022/12/30 05:13:27;;;;;;;;;;;;;;;18.95;64.35;99066.00;2070223;28;19929;-73
2022/12/30 05:14:28;;;;;;;;;;;;;;;18.95;64.09;99063.31;2073451;28;19924;-74
2022/12/30 05:15:29;;;;;;;;;;;;;;;19.01;63.86;99071.63;2076603;28;19921;-74
2022/12/30 05:16:31;;;;;;;;;;;;;;;19.00;64.24;99061.88;2076378;28;19939;-74
2022/12/30 05:17:31;;;;;;;;;;;;;;;19.01;64.20;99063.56;2072929;28;19924;-73
2022/12/30 05:18:33;;;;;;;;;;;;;;;19.02;64.01;99065.19;2072664;28;20514;-73
2022/12/30 05:19:33;;;;;;;;;;;;;;;19.03;63.98;99054.25;2071894;28;19950;-73
2022/12/30 05:20:35;;;;;;;;;;;;;;;19.06;63.79;99055.72;2075621;28;19968;-74
2022/12/30 05:21:35;;;;;;;;;;;;;;;19.07;63.98;99060.06;2077735;28;19928;-74
2022/12/30 05:22:38;;;;;;;;;;;;;;;19.09;64.17;99056.16;2074711;28;20304;-73
2022/12/30 05:26:16;;;;;;;;;;;;;;;19.15;64.00;99054.53;2074162;28;19921;-74
2022/12/30 05:27:18;;;;;;;;;;;;;;;19.15;64.05;99049.16;2072670;28;19975;-74
2022/12/30 05:28:19;;;;;;;;;;;;;;;19.17;64.17;99052.50;2072012;28;20333;-74
2022/12/30 05:29:20;;;;;;;;;;;;;;;19.21;63.94;99053.75;2075384;28;19928;-74
2022/12/30 05:30:21;;;;;;;;;;;;;;;19.21;63.88;99045.69;2071200;28;19932;-74
2022/12/30 05:31:22;;;;;;;;;;;;;;;19.26;63.90;99048.63;2070391;28;19973;-73
2022/12/30 05:32:23;;;;;;;;;;;;;;;19.26;64.07;99055.84;2074782;28;19921;-74
2022/12/30 05:33:24;;;;;;;;;;;;;;;19.26;64.01;99059.38;2066721;28;20350;-74
2022/12/30 05:34:25;;;;;;;;;;;;;;;19.28;63.63;99062.69;2071184;28;20791;-74
2022/12/30 05:35:26;;;;;;;;;;;;;;;19.28;63.79;99057.31;2077242;28;19966;-73
2022/12/30 05:36:27;;;;;;;;;;;;;;;19.27;63.90;99054.81;2073623;28;19936;-74
2022/12/30 05:37:28;;;;;;;;;;;;;;;19.29;63.83;99050.91;2070251;28;19936;-74
2022/12/30 05:38:30;;;;;;;;;;;;;;;19.31;63.68;99056.94;2070065;28;19968;-74
2022/12/30 05:39:32;;;;;;;;;;;;;;;19.31;63.76;99059.63;2072853;28;19920;-74
2022/12/30 05:40:32;;;;;;;;;;;;;;;19.29;63.65;99061.66;2072883;28;19929;-73
2022/12/30 05:41:34;;;;;;;;;;;;;;;19.32;63.76;99058.56;2077818;28;19925;-74
2022/12/30 05:42:34;;;;;;;;;;;;;;;19.32;63.83;99061.25;2071034;28;20562;-74
2022/12/30 05:43:36;;;;;;;;;;;;;;;19.34;63.81;99055.69;2067198;28;20357;-74
2022/12/30 05:44:36;;;;;;;;;;;;;;;19.34;63.47;99059.22;2069514;28;19940;-74
2022/12/30 05:45:38;;;;;;;;;;;;;;;19.34;63.82;99061.91;2073512;28;20792;-74
2022/12/30 05:46:38;;;;;;;;;;;;;;;19.35;63.75;99062.72;2071829;28;20421;-74
2022/12/30 05:47:40;;;;;;;;;;;;;;;19.34;63.54;99067.28;2069656;28;20018;-74
2022/12/30 05:48:40;;;;;;;;;;;;;;;19.35;63.76;99066.25;2073050;28;20033;-74
2022/12/30 05:49:42;;;;;;;;;;;;;;;19.34;63.57;99059.22;2073265;28;20486;-74
2022/12/30 05:50:42;;;;;;;;;;;;;;;19.35;63.71;99058.19;2068703;28;20658;-73
2022/12/30 05:51:44;;;;;;;;;;;;;;;19.37;63.81;99056.13;2073003;28;19921;-74
2022/12/30 05:52:44;;;;;;;;;;;;;;;19.36;63.73;99059.00;2071342;28;20499;-74
2022/12/30 05:53:47;;;;;;;;;;;;;;;19.39;63.87;99059.47;2071124;28;20002;-74
2022/12/30 05:54:48;;;;;;;;;;;;;;;19.38;63.47;99060.47;2073536;28;19932;-74
2022/12/30 05:55:50;;;;;;;;;;;;;;;19.39;63.63;99064.84;2071735;28;21605;-74
2022/12/30 05:56:50;;;;;;;;;;;;;;;19.41;63.65;99057.38;2074093;28;19964;-74
2022/12/30 05:57:52;;;;;;;;;;;;;;;19.40;63.82;99058.41;2073233;28;19921;-74
2022/12/30 05:58:52;;;;;;;;;;;;;;;19.40;63.76;99066.50;2072011;28;19952;-73
2022/12/30 05:59:54;;;;;;;;;;;;;;;19.40;63.54;99071.03;2072630;28;19935;-74
2022/12/30 06:00:55;;;;;;;;;;;;;;;19.41;63.49;99070.00;2070249;28;19920;-74
2022/12/30 06:01:57;;;;;;;;;;;;;;;19.38;63.63;99073.91;2074698;28;19921;-74
2022/12/30 06:02:57;;;;;;;;;;;;;;;19.41;63.38;99076.22;2075505;28;19978;-73
2022/12/30 06:03:59;;;;;;;;;;;;;;;19.42;63.57;99067.13;2076715;28;19975;-73
2022/12/30 06:04:59;;;;;;;;;;;;;;;19.41;63.81;99073.50;2071252;28;20366;-74
2022/12/30 06:06:02;;;;;;;;;;;;;;;19.41;63.48;99075.38;2073192;28;19925;-73
2022/12/30 06:07:03;;;;;;;;;;;;;;;19.42;63.40;99071.69;2075826;28;20339;-74
2022/12/30 06:08:04;;;;;;;;;;;;;;;19.42;63.61;99080.59;2072669;28;23753;-74
2022/12/30 06:09:08;;;;;;;;;;;;;;;19.43;63.73;99076.84;2072131;28;20025;-74
2022/12/30 06:10:08;;;;;;;;;;;;;;;19.44;63.57;99077.66;2075402;28;19998;-74
2022/12/30 06:11:10;;;;;;;;;;;;;;;19.42;63.55;99077.06;2066506;28;19999;-74
2022/12/30 06:12:10;;;;;;;;;;;;;;;19.41;63.81;99073.50;2071749;28;21566;-74
2022/12/30 06:13:12;;;;;;;;;;;;;;;19.43;63.39;99076.84;2073638;28;19925;-74
2022/12/30 06:14:15;;;;;;;;;;;;;;;19.43;63.70;99076.03;2072544;28;19982;-73
2022/12/30 06:15:17;;;;;;;;;;;;;;;19.41;63.73;99070.81;2075658;28;20480;-74
2022/12/30 06:16:17;;;;;;;;;;;;;;;19.41;63.91;99068.13;2071067;28;20386;-73
2022/12/30 06:17:19;;;;;;;;;;;;;;;19.41;63.50;99068.13;2072644;28;19924;-74
2022/12/30 06:18:19;;;;;;;;;;;;;;;19.40;63.41;99058.41;2074617;28;20492;-74